sensor_id;sensor_type;location;lat;lon;timestamp;pressure;altitude;pressure_sealevel;temperature;humidity
70684;BME280;58263;48.146;11.440;2022-07-17T00:01:21;96448.53;;;17.79;51.41
70684;BME280;58263;48.146;11.440;2022-07-17T00:03:46;96452.88;;;17.80;51.16
70684;BME280;58263;48.146;11.440;2022-07-17T00:06:13;96454.25;;;17.83;50.56
70684;BME280;58263;48.146;11.440;2022-07-17T00:08:38;96452.38;;;17.83;51.08
70684;BME280;58263;48.146;11.440;2022-07-17T00:11:03;96455.66;;;17.85;50.86
70684;BME280;58263;48.146;11.440;2022-07-17T00:13:29;96449.78;;;17.66;51.30
70684;BME280;58263;48.146;11.440;2022-07-17T00:15:54;96446.22;;;17.61;51.79
70684;BME280;58263;48.146;11.440;2022-07-17T00:18:20;96453.28;;;17.62;51.81
70684;BME280;58263;48.146;11.440;2022-07-17T00:20:45;96452.94;;;17.53;52.50
70684;BME280;58263;48.146;11.440;2022-07-17T00:23:11;96452.13;;;17.52;52.00
70684;BME280;58263;48.146;11.440;2022-07-17T00:25:36;96448.28;;;17.48;52.66
70684;BME280;58263;48.146;11.440;2022-07-17T00:28:02;96444.34;;;17.34;52.45
70684;BME280;58263;48.146;11.440;2022-07-17T00:30:28;96444.91;;;17.36;52.24
70684;BME280;58263;48.146;11.440;2022-07-17T00:32:53;96441.13;;;17.37;51.90
70684;BME280;58263;48.146;11.440;2022-07-17T00:35:19;96443.47;;;17.28;52.88
70684;BME280;58263;48.146;11.440;2022-07-17T00:37:46;96441.81;;;17.27;53.17
70684;BME280;58263;48.146;11.440;2022-07-17T00:40:17;96447.91;;;17.12;53.75
70684;BME280;58263;48.146;11.440;2022-07-17T00:42:43;96452.53;;;17.12;53.59
70684;BME280;58263;48.146;11.440;2022-07-17T00:45:10;96450.88;;;17.11;53.59
70684;BME280;58263;48.146;11.440;2022-07-17T00:50:17;96444.13;;;17.13;53.42
70684;BME280;58263;48.146;11.440;2022-07-17T00:52:42;96446.97;;;17.01;53.34
70684;BME280;58263;48.146;11.440;2022-07-17T00:55:08;96439.63;;;16.97;54.07
70684;BME280;58263;48.146;11.440;2022-07-17T00:57:36;96442.06;;;16.98;53.66
70684;BME280;58263;48.146;11.440;2022-07-17T01:00:03;96446.03;;;16.90;53.85
70684;BME280;58263;48.146;11.440;2022-07-17T01:02:34;96450.19;;;16.76;53.92
70684;BME280;58263;48.146;11.440;2022-07-17T01:04:59;96448.03;;;16.78;53.67
70684;BME280;58263;48.146;11.440;2022-07-17T01:07:25;96448.28;;;16.77;54.49
70684;BME280;58263;48.146;11.440;2022-07-17T01:09:50;96445.28;;;16.73;54.04
70684;BME280;58263;48.146;11.440;2022-07-17T01:12:16;96438.16;;;16.67;54.74
70684;BME280;58263;48.146;11.440;2022-07-17T01:14:42;96445.22;;;16.68;54.84
70684;BME280;58263;48.146;11.440;2022-07-17T01:17:08;96437.03;;;16.63;55.47
70684;BME280;58263;48.146;11.440;2022-07-17T01:19:35;96441.22;;;16.53;55.81
70684;BME280;58263;48.146;11.440;2022-07-17T01:22:00;96444.81;;;16.59;55.41
70684;BME280;58263;48.146;11.440;2022-07-17T01:24:25;96444.59;;;16.61;55.80
70684;BME280;58263;48.146;11.440;2022-07-17T01:26:51;96439.53;;;16.69;55.46
70684;BME280;58263;48.146;11.440;2022-07-17T01:29:16;96441.88;;;16.61;54.94
70684;BME280;58263;48.146;11.440;2022-07-17T01:31:42;96455.91;;;16.58;55.64
70684;BME280;58263;48.146;11.440;2022-07-17T01:34:09;96449.28;;;16.48;55.72
70684;BME280;58263;48.146;11.440;2022-07-17T01:36:35;96443.38;;;16.29;55.83
70684;BME280;58263;48.146;11.440;2022-07-17T01:39:01;96448.47;;;16.48;55.80
70684;BME280;58263;48.146;11.440;2022-07-17T01:41:27;96448.22;;;16.49;55.27
70684;BME280;58263;48.146;11.440;2022-07-17T01:43:52;96453.56;;;16.44;55.01
70684;BME280;58263;48.146;11.440;2022-07-17T01:46:18;96452.00;;;16.48;54.85
70684;BME280;58263;48.146;11.440;2022-07-17T01:48:43;96449.41;;;16.36;55.79
70684;BME280;58263;48.146;11.440;2022-07-17T01:51:09;96451.78;;;16.33;55.54
70684;BME280;58263;48.146;11.440;2022-07-17T01:53:34;96445.88;;;16.36;55.51
70684;BME280;58263;48.146;11.440;2022-07-17T01:55:59;96450.22;;;16.37;55.06
70684;BME280;58263;48.146;11.440;2022-07-17T01:58:25;96450.56;;;16.23;54.92
70684;BME280;58263;48.146;11.440;2022-07-17T02:00:51;96452.66;;;16.16;55.84
70684;BME280;58263;48.146;11.440;2022-07-17T02:03:16;96455.28;;;16.11;55.69
70684;BME280;58263;48.146;11.440;2022-07-17T02:05:42;96451.75;;;16.11;55.38
70684;BME280;58263;48.146;11.440;2022-07-17T02:08:07;96447.34;;;15.87;56.00
70684;BME280;58263;48.146;11.440;2022-07-17T02:10:33;96447.34;;;15.87;55.75
70684;BME280;58263;48.146;11.440;2022-07-17T02:12:58;96444.56;;;15.99;55.86
70684;BME280;58263;48.146;11.440;2022-07-17T02:15:24;96447.50;;;15.98;56.46
70684;BME280;58263;48.146;11.440;2022-07-17T02:17:49;96436.63;;;15.93;56.11
70684;BME280;58263;48.146;11.440;2022-07-17T02:20:15;96439.41;;;15.81;56.44
70684;BME280;58263;48.146;11.440;2022-07-17T02:22:41;96441.34;;;15.85;56.81
70684;BME280;58263;48.146;11.440;2022-07-17T02:25:07;96443.63;;;15.77;57.29
70684;BME280;58263;48.146;11.440;2022-07-17T02:27:34;96439.53;;;15.74;57.05
70684;BME280;58263;48.146;11.440;2022-07-17T02:30:08;96438.97;;;15.89;57.27
70684;BME280;58263;48.146;11.440;2022-07-17T02:32:34;96445.63;;;15.81;57.41
70684;BME280;58263;48.146;11.440;2022-07-17T02:34:59;96448.78;;;15.78;57.21
70684;BME280;58263;48.146;11.440;2022-07-17T02:37:25;96446.25;;;15.71;57.33
70684;BME280;58263;48.146;11.440;2022-07-17T02:39:50;96442.91;;;15.81;57.02
70684;BME280;58263;48.146;11.440;2022-07-17T02:42:24;96439.03;;;15.77;57.75
70684;BME280;58263;48.146;11.440;2022-07-17T02:44:50;96443.28;;;15.73;57.73
70684;BME280;58263;48.146;11.440;2022-07-17T02:47:28;96439.53;;;15.57;57.91
70684;BME280;58263;48.146;11.440;2022-07-17T02:49:53;96442.47;;;15.55;58.00
70684;BME280;58263;48.146;11.440;2022-07-17T02:52:20;96438.00;;;15.61;57.33
70684;BME280;58263;48.146;11.440;2022-07-17T02:54:45;96439.19;;;15.53;58.30
70684;BME280;58263;48.146;11.440;2022-07-17T02:57:11;96445.25;;;15.44;58.72
70684;BME280;58263;48.146;11.440;2022-07-17T02:59:36;96443.19;;;15.34;59.19
70684;BME280;58263;48.146;11.440;2022-07-17T03:02:02;96448.34;;;15.35;58.90
70684;BME280;58263;48.146;11.440;2022-07-17T03:04:28;96445.91;;;15.34;59.21
70684;BME280;58263;48.146;11.440;2022-07-17T03:06:53;96449.06;;;15.31;59.36
70684;BME280;58263;48.146;11.440;2022-07-17T03:09:18;96450.06;;;15.42;58.75
70684;BME280;58263;48.146;11.440;2022-07-17T03:11:44;96447.66;;;15.28;59.17
70684;BME280;58263;48.146;11.440;2022-07-17T03:14:09;96450.63;;;15.27;59.14
70684;BME280;58263;48.146;11.440;2022-07-17T03:16:34;96452.66;;;15.19;59.51
70684;BME280;58263;48.146;11.440;2022-07-17T03:19:00;96447.09;;;15.26;59.11
70684;BME280;58263;48.146;11.440;2022-07-17T03:21:25;96437.69;;;15.29;58.60
70684;BME280;58263;48.146;11.440;2022-07-17T03:23:50;96444.06;;;15.23;59.56
70684;BME280;58263;48.146;11.440;2022-07-17T03:26:15;96443.59;;;15.26;59.71
70684;BME280;58263;48.146;11.440;2022-07-17T03:28:41;96441.47;;;15.28;59.32
70684;BME280;58263;48.146;11.440;2022-07-17T03:31:06;96445.03;;;15.16;59.56
70684;BME280;58263;48.146;11.440;2022-07-17T03:33:31;96445.38;;;15.20;59.19
70684;BME280;58263;48.146;11.440;2022-07-17T03:35:57;96437.66;;;15.12;59.43
70684;BME280;58263;48.146;11.440;2022-07-17T03:38:23;96441.19;;;15.12;59.69
70684;BME280;58263;48.146;11.440;2022-07-17T03:40:48;96439.44;;;15.06;60.34
70684;BME280;58263;48.146;11.440;2022-07-17T03:43:13;96448.81;;;15.15;59.74
70684;BME280;58263;48.146;11.440;2022-07-17T03:45:39;96439.06;;;15.14;59.47
70684;BME280;58263;48.146;11.440;2022-07-17T03:48:04;96441.66;;;15.09;59.96
70684;BME280;58263;48.146;11.440;2022-07-17T03:50:30;96438.38;;;15.07;59.37
70684;BME280;58263;48.146;11.440;2022-07-17T03:52:55;96438.78;;;14.99;59.84
70684;BME280;58263;48.146;11.440;2022-07-17T03:55:21;96434.66;;;14.96;59.92
70684;BME280;58263;48.146;11.440;2022-07-17T03:57:46;96439.47;;;14.94;60.48
70684;BME280;58263;48.146;11.440;2022-07-17T04:00:11;96441.38;;;14.94;59.92
70684;BME280;58263;48.146;11.440;2022-07-17T04:02:37;96448.91;;;14.92;60.09
70684;BME280;58263;48.146;11.440;2022-07-17T04:05:03;96447.69;;;14.99;59.97
70684;BME280;58263;48.146;11.440;2022-07-17T04:07:28;96452.78;;;14.96;60.01
70684;BME280;58263;48.146;11.440;2022-07-17T04:09:55;96455.38;;;14.91;60.09
70684;BME280;58263;48.146;11.440;2022-07-17T04:12:21;96460.88;;;14.96;60.11
70684;BME280;58263;48.146;11.440;2022-07-17T04:14:47;96461.41;;;15.10;59.38
70684;BME280;58263;48.146;11.440;2022-07-17T04:17:12;96451.91;;;15.07;59.37
70684;BME280;58263;48.146;11.440;2022-07-17T04:19:37;96453.88;;;15.12;59.50
70684;BME280;58263;48.146;11.440;2022-07-17T04:22:03;96469.28;;;15.11;59.41
70684;BME280;58263;48.146;11.440;2022-07-17T04:24:28;96470.06;;;15.12;60.14
70684;BME280;58263;48.146;11.440;2022-07-17T04:26:53;96459.13;;;15.18;59.76
70684;BME280;58263;48.146;11.440;2022-07-17T04:29:19;96466.84;;;15.27;59.44
70684;BME280;58263;48.146;11.440;2022-07-17T04:31:44;96467.75;;;15.32;59.48
70684;BME280;58263;48.146;11.440;2022-07-17T04:34:09;96466.38;;;15.30;59.32
70684;BME280;58263;48.146;11.440;2022-07-17T04:36:34;96466.84;;;15.27;59.25
70684;BME280;58263;48.146;11.440;2022-07-17T04:39:00;96464.72;;;15.29;59.91
70684;BME280;58263;48.146;11.440;2022-07-17T04:41:25;96473.75;;;15.34;59.93
70684;BME280;58263;48.146;11.440;2022-07-17T04:43:51;96468.00;;;15.31;59.78
70684;BME280;58263;48.146;11.440;2022-07-17T04:46:16;96465.38;;;15.36;60.02
70684;BME280;58263;48.146;11.440;2022-07-17T04:48:41;96469.75;;;15.37;59.55
70684;BME280;58263;48.146;11.440;2022-07-17T04:51:07;96466.75;;;15.50;58.80
70684;BME280;58263;48.146;11.440;2022-07-17T04:53:32;96465.75;;;15.57;59.11
70684;BME280;58263;48.146;11.440;2022-07-17T04:55:59;96470.03;;;15.69;58.19
70684;BME280;58263;48.146;11.440;2022-07-17T04:58:24;96476.09;;;15.77;59.10
70684;BME280;58263;48.146;11.440;2022-07-17T05:00:49;96466.53;;;15.86;57.98
70684;BME280;58263;48.146;11.440;2022-07-17T05:03:16;96465.97;;;16.01;57.57
70684;BME280;58263;48.146;11.440;2022-07-17T05:05:41;96466.94;;;16.12;57.51
70684;BME280;58263;48.146;11.440;2022-07-17T05:08:06;96462.25;;;16.24;56.47
70684;BME280;58263;48.146;11.440;2022-07-17T05:10:32;96463.56;;;16.21;57.77
70684;BME280;58263;48.146;11.440;2022-07-17T05:12:57;96463.22;;;16.18;54.88
70684;BME280;58263;48.146;11.440;2022-07-17T05:15:22;96459.41;;;16.36;54.54
70684;BME280;58263;48.146;11.440;2022-07-17T05:17:48;96466.16;;;16.33;55.89
70684;BME280;58263;48.146;11.440;2022-07-17T05:20:13;96458.97;;;16.44;54.97
70684;BME280;58263;48.146;11.440;2022-07-17T05:22:38;96466.53;;;16.42;56.64
70684;BME280;58263;48.146;11.440;2022-07-17T05:25:04;96464.41;;;16.44;55.07
70684;BME280;58263;48.146;11.440;2022-07-17T05:27:30;96466.63;;;16.47;54.67
70684;BME280;58263;48.146;11.440;2022-07-17T05:29:55;96467.31;;;16.60;54.62
70684;BME280;58263;48.146;11.440;2022-07-17T05:32:21;96456.75;;;16.80;54.45
70684;BME280;58263;48.146;11.440;2022-07-17T05:34:46;96465.41;;;16.82;54.90
70684;BME280;58263;48.146;11.440;2022-07-17T05:37:11;96462.59;;;16.72;54.66
70684;BME280;58263;48.146;11.440;2022-07-17T05:39:37;96458.66;;;17.02;53.68
70684;BME280;58263;48.146;11.440;2022-07-17T05:42:03;96461.25;;;17.19;53.67
70684;BME280;58263;48.146;11.440;2022-07-17T05:44:29;96456.31;;;17.38;53.06
70684;BME280;58263;48.146;11.440;2022-07-17T05:46:54;96460.78;;;17.54;52.85
70684;BME280;58263;48.146;11.440;2022-07-17T05:49:20;96461.50;;;17.72;52.43
70684;BME280;58263;48.146;11.440;2022-07-17T05:51:45;96462.09;;;17.79;52.85
70684;BME280;58263;48.146;11.440;2022-07-17T05:54:10;96462.06;;;18.01;52.74
70684;BME280;58263;48.146;11.440;2022-07-17T05:56:36;96464.06;;;18.21;51.99
70684;BME280;58263;48.146;11.440;2022-07-17T05:59:01;96464.69;;;18.29;51.04
70684;BME280;58263;48.146;11.440;2022-07-17T06:01:26;96459.38;;;18.49;50.44
70684;BME280;58263;48.146;11.440;2022-07-17T06:03:52;96461.56;;;18.57;50.47
70684;BME280;58263;48.146;11.440;2022-07-17T06:06:17;96472.78;;;18.71;49.95
70684;BME280;58263;48.146;11.440;2022-07-17T06:08:42;96463.25;;;18.69;49.06
70684;BME280;58263;48.146;11.440;2022-07-17T06:11:07;96461.75;;;18.94;49.04
70684;BME280;58263;48.146;11.440;2022-07-17T06:13:33;96461.84;;;19.14;48.56
70684;BME280;58263;48.146;11.440;2022-07-17T06:15:58;96458.09;;;19.31;47.73
70684;BME280;58263;48.146;11.440;2022-07-17T06:18:25;96466.28;;;19.51;47.74
70684;BME280;58263;48.146;11.440;2022-07-17T06:20:50;96465.19;;;19.63;46.62
70684;BME280;58263;48.146;11.440;2022-07-17T06:23:16;96467.44;;;19.81;45.83
70684;BME280;58263;48.146;11.440;2022-07-17T06:25:41;96466.59;;;20.01;46.73
70684;BME280;58263;48.146;11.440;2022-07-17T06:28:06;96464.41;;;20.24;45.88
70684;BME280;58263;48.146;11.440;2022-07-17T06:30:32;96467.38;;;20.43;45.29
70684;BME280;58263;48.146;11.440;2022-07-17T06:32:57;96473.03;;;20.57;44.12
70684;BME280;58263;48.146;11.440;2022-07-17T06:35:23;96476.84;;;20.66;43.00
70684;BME280;58263;48.146;11.440;2022-07-17T06:37:48;96468.91;;;20.85;43.27
70684;BME280;58263;48.146;11.440;2022-07-17T06:40:13;96465.28;;;21.05;43.21
70684;BME280;58263;48.146;11.440;2022-07-17T06:42:38;96469.53;;;21.27;43.18
70684;BME280;58263;48.146;11.440;2022-07-17T06:45:04;96468.09;;;21.40;42.82
70684;BME280;58263;48.146;11.440;2022-07-17T06:47:30;96472.13;;;21.53;43.04
70684;BME280;58263;48.146;11.440;2022-07-17T06:49:55;96472.84;;;21.69;41.55
70684;BME280;58263;48.146;11.440;2022-07-17T06:52:20;96473.25;;;21.91;41.50
70684;BME280;58263;48.146;11.440;2022-07-17T06:54:46;96479.25;;;22.23;41.29
70684;BME280;58263;48.146;11.440;2022-07-17T06:57:11;96476.94;;;22.40;39.86
70684;BME280;58263;48.146;11.440;2022-07-17T06:59:37;96482.34;;;22.70;40.24
70684;BME280;58263;48.146;11.440;2022-07-17T07:02:03;96478.75;;;22.99;39.85
70684;BME280;58263;48.146;11.440;2022-07-17T07:04:28;96482.13;;;23.15;38.28
70684;BME280;58263;48.146;11.440;2022-07-17T07:06:53;96472.31;;;23.33;37.72
70684;BME280;58263;48.146;11.440;2022-07-17T07:09:19;96473.16;;;23.52;37.63
70684;BME280;58263;48.146;11.440;2022-07-17T07:11:45;96473.34;;;23.75;37.56
70684;BME280;58263;48.146;11.440;2022-07-17T07:14:10;96473.00;;;24.01;37.43
70684;BME280;58263;48.146;11.440;2022-07-17T07:16:36;96475.69;;;24.20;36.05
70684;BME280;58263;48.146;11.440;2022-07-17T07:19:01;96472.78;;;24.30;35.22
70684;BME280;58263;48.146;11.440;2022-07-17T07:21:27;96473.44;;;24.55;35.06
70684;BME280;58263;48.146;11.440;2022-07-17T07:23:53;96479.78;;;24.69;34.71
70684;BME280;58263;48.146;11.440;2022-07-17T07:26:19;96482.84;;;24.82;34.32
70684;BME280;58263;48.146;11.440;2022-07-17T07:28:44;96473.91;;;24.90;32.92
70684;BME280;58263;48.146;11.440;2022-07-17T07:31:09;96478.13;;;25.10;33.48
70684;BME280;58263;48.146;11.440;2022-07-17T07:33:36;96472.84;;;25.27;32.88
70684;BME280;58263;48.146;11.440;2022-07-17T07:36:01;96478.94;;;25.38;32.73
70684;BME280;58263;48.146;11.440;2022-07-17T07:38:27;96484.31;;;25.57;32.39
70684;BME280;58263;48.146;11.440;2022-07-17T07:40:52;96477.34;;;25.74;32.04
70684;BME280;58263;48.146;11.440;2022-07-17T07:43:17;96470.22;;;25.95;31.65
70684;BME280;58263;48.146;11.440;2022-07-17T07:45:43;96474.81;;;26.23;31.41
70684;BME280;58263;48.146;11.440;2022-07-17T07:48:08;96475.69;;;26.32;30.91
70684;BME280;58263;48.146;11.440;2022-07-17T07:50:34;96481.16;;;26.55;29.44
70684;BME280;58263;48.146;11.440;2022-07-17T07:52:59;96477.06;;;26.75;29.74
70684;BME280;58263;48.146;11.440;2022-07-17T07:55:24;96475.69;;;27.04;29.41
70684;BME280;58263;48.146;11.440;2022-07-17T07:58:08;96474.97;;;27.29;28.40
70684;BME280;58263;48.146;11.440;2022-07-17T08:00:34;96471.66;;;27.50;28.14
70684;BME280;58263;48.146;11.440;2022-07-17T08:02:59;96474.06;;;27.52;27.34
70684;BME280;58263;48.146;11.440;2022-07-17T08:05:25;96477.16;;;27.67;28.22
70684;BME280;58263;48.146;11.440;2022-07-17T08:07:51;96481.38;;;27.74;27.71
70684;BME280;58263;48.146;11.440;2022-07-17T08:10:16;96483.47;;;27.77;27.40
70684;BME280;58263;48.146;11.440;2022-07-17T08:12:41;96478.78;;;27.86;27.63
70684;BME280;58263;48.146;11.440;2022-07-17T08:15:07;96479.78;;;28.08;27.03
70684;BME280;58263;48.146;11.440;2022-07-17T08:17:32;96477.00;;;28.25;27.08
70684;BME280;58263;48.146;11.440;2022-07-17T08:19:58;96476.78;;;28.48;26.52
70684;BME280;58263;48.146;11.440;2022-07-17T08:22:23;96473.84;;;28.53;25.58
70684;BME280;58263;48.146;11.440;2022-07-17T08:24:48;96474.63;;;28.71;26.49
70684;BME280;58263;48.146;11.440;2022-07-17T08:27:14;96485.66;;;28.80;25.60
70684;BME280;58263;48.146;11.440;2022-07-17T08:29:39;96488.97;;;28.94;25.40
70684;BME280;58263;48.146;11.440;2022-07-17T08:32:04;96499.00;;;29.08;25.00
70684;BME280;58263;48.146;11.440;2022-07-17T08:34:30;96493.25;;;29.30;25.30
70684;BME280;58263;48.146;11.440;2022-07-17T08:36:55;96496.09;;;29.43;25.08
70684;BME280;58263;48.146;11.440;2022-07-17T08:39:20;96489.09;;;29.66;24.99
70684;BME280;58263;48.146;11.440;2022-07-17T08:41:46;96499.31;;;29.96;23.81
70684;BME280;58263;48.146;11.440;2022-07-17T08:44:11;96498.84;;;30.15;23.60
70684;BME280;58263;48.146;11.440;2022-07-17T08:46:38;96492.03;;;30.46;24.01
70684;BME280;58263;48.146;11.440;2022-07-17T08:49:04;96488.50;;;30.70;23.73
70684;BME280;58263;48.146;11.440;2022-07-17T08:51:31;96501.09;;;30.80;23.28
70684;BME280;58263;48.146;11.440;2022-07-17T08:53:57;96503.56;;;30.94;23.38
70684;BME280;58263;48.146;11.440;2022-07-17T08:56:24;96496.28;;;30.89;22.87
70684;BME280;58263;48.146;11.440;2022-07-17T08:58:49;96490.03;;;30.92;22.40
70684;BME280;58263;48.146;11.440;2022-07-17T09:01:17;96497.25;;;31.06;22.78
70684;BME280;58263;48.146;11.440;2022-07-17T09:03:58;96492.41;;;31.15;21.58
70684;BME280;58263;48.146;11.440;2022-07-17T09:06:25;96492.88;;;31.17;21.90
70684;BME280;58263;48.146;11.440;2022-07-17T09:14:12;96489.63;;;31.40;22.33
70684;BME280;58263;48.146;11.440;2022-07-17T09:16:48;96490.78;;;31.63;22.40
70684;BME280;58263;48.146;11.440;2022-07-17T09:19:24;96495.63;;;31.66;21.00
70684;BME280;58263;48.146;11.440;2022-07-17T09:21:50;96486.34;;;31.75;21.76
70684;BME280;58263;48.146;11.440;2022-07-17T09:24:16;96482.88;;;31.78;21.56
70684;BME280;58263;48.146;11.440;2022-07-17T09:26:44;96493.75;;;31.83;21.70
70684;BME280;58263;48.146;11.440;2022-07-17T09:29:10;96492.53;;;31.96;20.97
70684;BME280;58263;48.146;11.440;2022-07-17T09:31:37;96488.69;;;32.01;21.34
70684;BME280;58263;48.146;11.440;2022-07-17T09:34:02;96499.31;;;32.11;20.29
70684;BME280;58263;48.146;11.440;2022-07-17T09:36:28;96490.13;;;32.23;20.45
70684;BME280;58263;48.146;11.440;2022-07-17T09:38:56;96495.31;;;32.37;20.74
70684;BME280;58263;48.146;11.440;2022-07-17T09:41:23;96488.59;;;32.54;21.01
70684;BME280;58263;48.146;11.440;2022-07-17T09:43:51;96495.50;;;32.73;21.15
70684;BME280;58263;48.146;11.440;2022-07-17T09:46:26;96490.09;;;32.80;19.93
70684;BME280;58263;48.146;11.440;2022-07-17T09:48:52;96486.72;;;33.02;20.31
70684;BME280;58263;48.146;11.440;2022-07-17T09:51:25;96496.13;;;33.14;20.44
70684;BME280;58263;48.146;11.440;2022-07-17T09:53:52;96502.66;;;33.38;20.34
70684;BME280;58263;48.146;11.440;2022-07-17T09:56:20;96495.81;;;33.51;19.68
70684;BME280;58263;48.146;11.440;2022-07-17T09:58:55;96492.38;;;33.74;19.57
70684;BME280;58263;48.146;11.440;2022-07-17T10:01:22;96492.91;;;33.99;19.97
70684;BME280;58263;48.146;11.440;2022-07-17T10:03:48;96499.59;;;34.14;19.07
70684;BME280;58263;48.146;11.440;2022-07-17T10:06:18;96491.53;;;34.28;18.22
70684;BME280;58263;48.146;11.440;2022-07-17T10:08:44;96492.25;;;34.06;18.67
70684;BME280;58263;48.146;11.440;2022-07-17T10:11:10;96492.44;;;34.13;18.82
70684;BME280;58263;48.146;11.440;2022-07-17T10:13:39;96496.38;;;34.12;18.68
70684;BME280;58263;48.146;11.440;2022-07-17T10:16:06;96495.91;;;34.10;19.06
70684;BME280;58263;48.146;11.440;2022-07-17T10:18:42;96501.28;;;34.18;18.92
70684;BME280;58263;48.146;11.440;2022-07-17T10:21:13;96499.00;;;34.24;18.40
70684;BME280;58263;48.146;11.440;2022-07-17T10:24:25;96508.84;;;34.38;19.00
70684;BME280;58263;48.146;11.440;2022-07-17T10:26:34;96506.19;;;34.45;18.34
70684;BME280;58263;48.146;11.440;2022-07-17T10:28:59;96503.34;;;34.41;18.46
70684;BME280;58263;48.146;11.440;2022-07-17T10:31:27;96504.41;;;34.56;18.48
70684;BME280;58263;48.146;11.440;2022-07-17T10:34:03;96505.72;;;34.82;18.18
70684;BME280;58263;48.146;11.440;2022-07-17T10:38:58;96496.31;;;34.90;17.56
70684;BME280;58263;48.146;11.440;2022-07-17T10:41:24;96497.06;;;34.87;17.56
70684;BME280;58263;48.146;11.440;2022-07-17T10:43:52;96503.28;;;35.77;16.67
70684;BME280;58263;48.146;11.440;2022-07-17T10:46:17;96501.13;;;37.44;15.22
70684;BME280;58263;48.146;11.440;2022-07-17T10:48:47;96499.72;;;37.71;14.92
70684;BME280;58263;48.146;11.440;2022-07-17T10:51:12;96489.56;;;37.00;15.80
70684;BME280;58263;48.146;11.440;2022-07-17T10:53:38;96488.34;;;36.60;15.53
70684;BME280;58263;48.146;11.440;2022-07-17T10:56:05;96487.19;;;36.27;16.32
70684;BME280;58263;48.146;11.440;2022-07-17T10:58:33;96483.25;;;36.32;16.40
70684;BME280;58263;48.146;11.440;2022-07-17T11:03:24;96489.19;;;36.30;16.57
70684;BME280;58263;48.146;11.440;2022-07-17T11:05:50;96480.47;;;36.32;16.56
70684;BME280;58263;48.146;11.440;2022-07-17T11:08:15;96479.41;;;36.44;16.18
70684;BME280;58263;48.146;11.440;2022-07-17T11:10:40;96478.63;;;36.47;16.22
70684;BME280;58263;48.146;11.440;2022-07-17T11:13:10;96474.50;;;36.03;15.11
70684;BME280;58263;48.146;11.440;2022-07-17T11:15:45;96462.97;;;35.78;15.02
70684;BME280;58263;48.146;11.440;2022-07-17T11:18:16;96466.25;;;36.14;15.70
70684;BME280;58263;48.146;11.440;2022-07-17T11:21:01;96457.84;;;36.10;15.46
70684;BME280;58263;48.146;11.440;2022-07-17T11:23:31;96460.09;;;36.31;15.16
70684;BME280;58263;48.146;11.440;2022-07-17T11:26:03;96446.22;;;36.38;15.31
70684;BME280;58263;48.146;11.440;2022-07-17T11:28:49;96449.06;;;36.46;15.13
70684;BME280;58263;48.146;11.440;2022-07-17T11:31:20;96447.19;;;36.57;15.35
70684;BME280;58263;48.146;11.440;2022-07-17T11:36:24;96438.28;;;36.85;14.58
70684;BME280;58263;48.146;11.440;2022-07-17T11:38:51;96432.28;;;36.83;14.08
70684;BME280;58263;48.146;11.440;2022-07-17T11:41:16;96436.78;;;36.95;14.43
70684;BME280;58263;48.146;11.440;2022-07-17T11:43:43;96435.16;;;36.94;14.67
70684;BME280;58263;48.146;11.440;2022-07-17T11:46:09;96432.06;;;37.07;14.78
70684;BME280;58263;48.146;11.440;2022-07-17T11:48:35;96439.25;;;36.63;14.58
70684;BME280;58263;48.146;11.440;2022-07-17T11:51:01;96441.47;;;36.43;14.83
70684;BME280;58263;48.146;11.440;2022-07-17T11:53:37;96433.13;;;36.46;15.66
70684;BME280;58263;48.146;11.440;2022-07-17T11:56:04;96433.47;;;36.41;15.35
70684;BME280;58263;48.146;11.440;2022-07-17T11:58:44;96432.19;;;36.35;15.38
70684;BME280;58263;48.146;11.440;2022-07-17T12:01:10;96430.47;;;36.27;14.82
70684;BME280;58263;48.146;11.440;2022-07-17T12:03:36;96433.03;;;36.39;14.43
70684;BME280;58263;48.146;11.440;2022-07-17T12:06:01;96426.72;;;36.46;13.46
70684;BME280;58263;48.146;11.440;2022-07-17T12:08:26;96429.94;;;36.48;14.40
70684;BME280;58263;48.146;11.440;2022-07-17T12:11:08;96426.31;;;36.44;13.54
70684;BME280;58263;48.146;11.440;2022-07-17T12:13:42;96422.53;;;36.29;13.02
70684;BME280;58263;48.146;11.440;2022-07-17T12:21:27;96420.38;;;36.49;14.62
70684;BME280;58263;48.146;11.440;2022-07-17T12:24:05;96419.81;;;36.32;14.95
70684;BME280;58263;48.146;11.440;2022-07-17T12:26:32;96411.31;;;36.25;14.65
70684;BME280;58263;48.146;11.440;2022-07-17T12:28:58;96412.84;;;36.19;14.87
70684;BME280;58263;48.146;11.440;2022-07-17T12:31:24;96416.88;;;36.25;14.01
70684;BME280;58263;48.146;11.440;2022-07-17T12:33:51;96408.94;;;36.27;14.61
70684;BME280;58263;48.146;11.440;2022-07-17T12:36:17;96417.09;;;36.43;14.88
70684;BME280;58263;48.146;11.440;2022-07-17T12:38:42;96419.56;;;36.48;14.67
70684;BME280;58263;48.146;11.440;2022-07-17T12:41:08;96412.31;;;36.44;14.45
70684;BME280;58263;48.146;11.440;2022-07-17T12:43:33;96415.63;;;36.57;13.87
70684;BME280;58263;48.146;11.440;2022-07-17T12:45:58;96408.53;;;36.66;13.83
70684;BME280;58263;48.146;11.440;2022-07-17T12:48:24;96410.19;;;36.71;14.47
70684;BME280;58263;48.146;11.440;2022-07-17T12:50:49;96403.84;;;36.78;13.94
70684;BME280;58263;48.146;11.440;2022-07-17T12:53:14;96410.78;;;36.91;13.83
70684;BME280;58263;48.146;11.440;2022-07-17T12:55:40;96406.75;;;36.88;14.14
70684;BME280;58263;48.146;11.440;2022-07-17T12:58:05;96405.38;;;36.68;13.83
70684;BME280;58263;48.146;11.440;2022-07-17T13:00:31;96399.63;;;36.53;14.36
70684;BME280;58263;48.146;11.440;2022-07-17T13:02:56;96406.56;;;36.29;14.20
70684;BME280;58263;48.146;11.440;2022-07-17T13:05:22;96398.91;;;36.22;14.24
70684;BME280;58263;48.146;11.440;2022-07-17T13:07:48;96396.94;;;36.23;14.68